Time;durP1;ratioP1;P1;durP2;ratioP2;P2;SDS_P1;SDS_P2;PMS_P1;PMS_P2;Temp;Humidity;BMP_temperature;BMP_pressure;BME280_temperature;BME280_humidity;BME280_pressure;Samples;Min_cycle;Max_cycle;Signal;HPM_P1;HPM_P2
2023/08/30 00:00:42;;;;;;;9.13;7.20;;;;;;;11.76;100.00;100718.34;5201171;28;20125;-78
2023/08/30 00:03:13;;;;;;;9.30;8.10;;;;;;;11.70;100.00;100711.47;5200977;28;20033;-78
2023/08/30 00:05:45;;;;;;;8.63;7.80;;;;;;;11.68;100.00;100710.66;5200694;28;20425;-77
2023/08/30 00:08:19;;;;;;;9.80;8.53;;;;;;;11.61;100.00;100702.09;5201000;28;20058;-77
2023/08/30 00:10:51;;;;;;;11.50;8.40;;;;;;;11.64;100.00;100707.25;5200828;28;20057;-78
2023/08/30 00:13:22;;;;;;;9.60;8.57;;;;;;;11.53;100.00;100703.97;5201886;28;20038;-78
2023/08/30 00:15:54;;;;;;;11.67;7.97;;;;;;;11.50;100.00;100704.88;5202710;28;20022;-78
2023/08/30 00:18:26;;;;;;;11.95;8.32;;;;;;;11.48;100.00;100701.44;5202801;28;20390;-79
2023/08/30 00:20:57;;;;;;;9.37;8.47;;;;;;;11.49;100.00;100700.56;5202359;28;20037;-77
2023/08/30 00:23:29;;;;;;;9.43;7.77;;;;;;;11.43;100.00;100702.41;5202532;28;20062;-78
2023/08/30 00:26:00;;;;;;;8.70;7.90;;;;;;;11.42;100.00;100692.88;5202670;28;20125;-78
2023/08/30 00:28:32;;;;;;;11.43;8.13;;;;;;;11.36;100.00;100695.56;5202392;28;20037;-77
2023/08/30 00:31:03;;;;;;;9.13;7.40;;;;;;;11.34;100.00;100699.97;5202607;28;20034;-77
2023/08/30 00:33:34;;;;;;;9.20;7.53;;;;;;;11.39;100.00;100698.97;5201667;28;20042;-77
2023/08/30 00:36:06;;;;;;;8.73;7.57;;;;;;;11.39;100.00;100690.31;5201419;28;20100;-77
2023/08/30 00:38:37;;;;;;;8.80;8.00;;;;;;;11.28;100.00;100683.50;5200976;28;20057;-77
2023/08/30 00:41:08;;;;;;;9.53;8.17;;;;;;;11.35;100.00;100689.50;5200935;28;20039;-77
2023/08/30 00:43:40;;;;;;;8.93;7.63;;;;;;;11.31;100.00;100677.38;5201090;28;20030;-77
2023/08/30 00:46:12;;;;;;;9.33;8.27;;;;;;;11.32;100.00;100679.97;5200789;28;20038;-77
2023/08/30 00:48:44;;;;;;;9.48;7.90;;;;;;;11.24;100.00;100671.41;5200561;28;20029;-78
2023/08/30 00:51:16;;;;;;;9.45;7.95;;;;;;;11.20;100.00;100661.06;5200805;28;20065;-77
2023/08/30 00:53:48;;;;;;;8.63;7.70;;;;;;;11.19;100.00;100664.53;5204656;28;20037;-77
2023/08/30 00:56:19;;;;;;;11.13;8.68;;;;;;;11.12;100.00;100672.50;5204649;28;20026;-77
2023/08/30 00:58:51;;;;;;;9.17;7.33;;;;;;;11.11;100.00;100668.16;5204454;28;20038;-77
2023/08/30 01:01:22;;;;;;;13.50;8.03;;;;;;;11.13;100.00;100657.69;5204509;28;20033;-77
2023/08/30 01:03:54;;;;;;;10.33;8.47;;;;;;;11.18;100.00;100655.88;5204474;28;20052;-77
2023/08/30 01:06:26;;;;;;;9.80;8.27;;;;;;;11.19;100.00;100665.41;5204347;28;20042;-77
2023/08/30 01:08:58;;;;;;;8.77;7.60;;;;;;;11.15;100.00;100653.31;5204053;28;20054;-78
2023/08/30 01:11:38;;;;;;;10.07;7.90;;;;;;;11.10;100.00;100668.19;5204167;28;20541;-76
2023/08/30 01:14:25;;;;;;;10.52;7.88;;;;;;;11.05;100.00;100662.19;5204192;28;20069;-77
2023/08/30 01:16:57;;;;;;;8.60;7.68;;;;;;;10.99;100.00;100668.34;5203877;28;20038;-78
2023/08/30 01:19:58;;;;;;;9.68;8.68;;;;;;;10.94;100.00;100655.38;5203909;28;20385;-78
2023/08/30 01:22:43;;;;;;;10.25;8.88;;;;;;;10.87;100.00;100665.97;5204124;28;20026;-76
2023/08/30 01:25:27;;;;;;;9.35;7.90;;;;;;;10.82;100.00;100653.00;5204010;28;20037;-77
2023/08/30 01:28:04;;;;;;;10.20;8.20;;;;;;;10.79;100.00;100655.66;5203436;28;20038;-77
2023/08/30 01:30:40;;;;;;;8.90;7.82;;;;;;;10.76;100.00;100653.94;5203728;28;20363;-76
2023/08/30 01:33:14;;;;;;;9.90;8.40;;;;;;;10.71;100.00;100652.31;5203636;28;20430;-77
2023/08/30 01:35:46;;;;;;;8.57;7.45;;;;;;;10.66;100.00;100651.47;5203379;28;20447;-78
2023/08/30 01:38:18;;;;;;;12.00;8.73;;;;;;;10.65;100.00;100652.38;5203826;28;20034;-77
2023/08/30 01:40:51;;;;;;;9.77;7.17;;;;;;;10.54;100.00;100653.38;5203671;28;20026;-76
2023/08/30 01:43:24;;;;;;;10.85;6.95;;;;;;;10.54;100.00;100650.78;5203324;28;20058;-77
2023/08/30 01:45:57;;;;;;;11.48;8.60;;;;;;;10.52;100.00;100655.16;5203541;28;20085;-77
2023/08/30 01:48:29;;;;;;;10.10;7.80;;;;;;;10.51;100.00;100656.06;5203456;28;20129;-77
2023/08/30 01:51:00;;;;;;;20.05;8.35;;;;;;;10.52;100.00;100654.31;5203464;28;20370;-77
2023/08/30 01:53:32;;;;;;;11.27;7.17;;;;;;;10.41;100.00;100646.66;5203471;28;20035;-77
2023/08/30 01:56:04;;;;;;;8.67;7.70;;;;;;;10.43;100.00;100647.47;5203470;28;20034;-78
2023/08/30 01:58:35;;;;;;;11.40;8.73;;;;;;;10.43;100.00;100644.88;5203879;28;20101;-77
2023/08/30 02:01:08;;;;;;;9.10;7.13;;;;;;;10.38;100.00;100644.97;5203036;28;20127;-77
2023/08/30 02:03:39;;;;;;;9.75;7.40;;;;;;;10.34;100.00;100648.47;5185531;28;20069;-77
2023/08/30 02:06:40;;;;;;;8.80;7.57;;;;;;;10.35;100.00;100652.81;5202760;28;20483;-77
2023/08/30 02:09:21;;;;;;;8.73;7.88;;;;;;;10.35;100.00;100646.72;5193945;28;20050;-77
2023/08/30 02:11:55;;;;;;;10.30;7.78;;;;;;;10.36;100.00;100653.66;5203237;28;20030;-76
2023/08/30 02:14:28;;;;;;;11.50;8.60;;;;;;;10.32;100.00;100651.94;5203071;28;20034;-77
2023/08/30 02:16:59;;;;;;;;;;;;;;;10.30;100.00;100648.50;5203340;28;20034;-77
2023/08/30 02:19:31;;;;;;;10.10;7.72;;;;;;;10.38;100.00;100637.16;5200718;28;19917;-78
2023/08/30 02:22:03;;;;;;;10.75;8.75;;;;;;;10.44;100.00;100644.00;5202418;28;20533;-78
2023/08/30 02:24:34;;;;;;;12.33;9.00;;;;;;;10.49;100.00;100638.72;5202270;28;20026;-77
2023/08/30 02:27:05;;;;;;;10.83;8.47;;;;;;;10.51;100.00;100629.13;5202594;28;20034;-77
2023/08/30 02:29:37;;;;;;;16.17;8.50;;;;;;;10.57;100.00;100631.66;5185425;28;20084;-76
2023/08/30 02:32:09;;;;;;;11.73;8.17;;;;;;;10.64;100.00;100630.69;5202682;28;20030;-76
2023/08/30 02:34:40;;;;;;;12.47;8.90;;;;;;;10.79;100.00;100620.88;5202592;28;20035;-77
2023/08/30 02:37:11;;;;;;;11.63;8.80;;;;;;;10.79;100.00;100615.66;5202803;28;20088;-76
2023/08/30 02:39:43;;;;;;;12.17;9.10;;;;;;;10.91;100.00;100613.69;5202728;28;20030;-77
2023/08/30 02:42:14;;;;;;;10.80;9.33;;;;;;;10.98;100.00;100611.00;5202720;28;20030;-76
2023/08/30 02:44:45;;;;;;;12.43;8.73;;;;;;;11.06;100.00;100615.22;5202544;28;20022;-77
2023/08/30 02:47:17;;;;;;;12.20;8.80;;;;;;;11.15;100.00;100608.94;5202524;28;20030;-77
2023/08/30 02:49:48;;;;;;;12.17;10.03;;;;;;;11.20;100.00;100614.94;5202379;28;20039;-77
2023/08/30 02:52:19;;;;;;;23.67;10.30;;;;;;;11.26;100.00;100614.84;5202267;28;20498;-77
2023/08/30 02:54:51;;;;;;;11.70;9.97;;;;;;;11.31;100.00;100613.00;5184887;28;20026;-77
2023/08/30 02:57:22;;;;;;;11.97;10.77;;;;;;;11.33;100.00;100612.97;5202289;28;20038;-79
2023/08/30 02:59:54;;;;;;;11.43;10.33;;;;;;;11.38;100.00;100603.31;5202274;28;20062;-77
2023/08/30 03:02:25;;;;;;;14.07;11.13;;;;;;;11.42;100.00;100604.13;5201942;28;20023;-77
2023/08/30 03:04:56;;;;;;;12.07;10.47;;;;;;;11.45;100.00;100606.69;5184381;28;20056;-77
2023/08/30 03:07:31;;;;;;;14.07;10.90;;;;;;;11.50;100.00;100602.22;5184631;28;20113;-77
2023/08/30 03:10:03;;;;;;;12.25;10.70;;;;;;;11.54;100.00;100605.63;5201560;28;20057;-77
2023/08/30 03:12:34;;;;;;;16.33;10.20;;;;;;;11.56;100.00;100607.31;5201944;28;20462;-77
2023/08/30 03:15:06;;;;;;;12.67;10.97;;;;;;;11.59;100.00;100599.44;5201001;28;20149;-77
2023/08/30 03:17:38;;;;;;;11.63;10.40;;;;;;;11.62;100.00;100599.38;5201941;28;20066;-78
2023/08/30 03:20:10;;;;;;;11.63;10.43;;;;;;;11.65;100.00;100601.06;5201798;28;20150;-78
2023/08/30 03:22:41;;;;;;;13.25;10.43;;;;;;;11.63;100.00;100598.47;5201529;28;20026;-78
2023/08/30 03:25:13;;;;;;;15.02;11.43;;;;;;;11.66;100.00;100594.94;5202158;28;20026;-77
2023/08/30 03:27:44;;;;;;;12.83;10.17;;;;;;;11.71;100.00;100592.25;5201373;28;20049;-78
2023/08/30 03:30:16;;;;;;;13.27;10.03;;;;;;;11.73;100.00;100593.91;5201434;28;20034;-78
2023/08/30 03:32:47;;;;;;;10.23;9.07;;;;;;;11.74;100.00;100582.59;5184214;28;20538;-78
2023/08/30 03:35:21;;;;;;;10.93;9.00;;;;;;;11.77;100.00;100576.44;5200884;28;20030;-78
2023/08/30 03:37:52;;;;;;;11.15;9.50;;;;;;;11.78;100.00;100576.41;5201323;28;20061;-77
2023/08/30 03:40:24;;;;;;;11.77;8.63;;;;;;;11.80;100.00;100571.13;5201132;28;20030;-77
2023/08/30 03:42:55;;;;;;;12.73;9.80;;;;;;;11.82;100.00;100561.53;5201430;28;20066;-78
2023/08/30 03:45:26;;;;;;;13.13;10.60;;;;;;;11.83;100.00;100558.03;5201385;28;20490;-79
2023/08/30 03:47:58;;;;;;;11.07;9.97;;;;;;;11.85;100.00;100536.22;5201271;28;20038;-77
2023/08/30 03:50:29;;;;;;;10.90;9.80;;;;;;;11.88;100.00;100537.88;5201304;28;20486;-77
2023/08/30 03:53:01;;;;;;;14.47;10.80;;;;;;;11.91;100.00;100536.97;5201238;28;20057;-78
2023/08/30 03:55:33;;;;;;;13.33;10.73;;;;;;;11.94;100.00;100527.31;5201113;28;20030;-77
2023/08/30 03:58:05;;;;;;;13.23;11.05;;;;;;;11.94;100.00;100524.72;5216897;28;20038;-78
2023/08/30 04:00:37;;;;;;;12.60;10.53;;;;;;;11.93;100.00;100523.03;5220300;28;20502;-77
2023/08/30 04:03:09;;;;;;;15.23;11.07;;;;;;;11.85;100.00;100510.09;5216768;28;20027;-78
2023/08/30 04:05:41;;;;;;;14.30;11.13;;;;;;;11.77;100.00;100505.91;5215984;28;20065;-77
2023/08/30 04:08:12;;;;;;;16.47;11.60;;;;;;;11.68;100.00;100502.63;5204462;28;20054;-77
2023/08/30 04:10:47;;;;;;;12.93;11.60;;;;;;;11.53;100.00;100497.75;5168014;28;20278;-77
2023/08/30 04:13:18;;;;;;;14.35;11.73;;;;;;;11.48;100.00;100503.06;5200894;28;20113;-77
2023/08/30 04:15:51;;;;;;;13.30;11.37;;;;;;;11.43;100.00;100485.75;5201299;28;20122;-77
2023/08/30 04:18:22;;;;;;;12.63;11.32;;;;;;;11.39;100.00;100495.41;5201113;28;20350;-77
2023/08/30 04:20:53;;;;;;;14.13;12.30;;;;;;;11.34;100.00;100501.63;5200868;28;20022;-77
2023/08/30 04:23:25;;;;;;;16.13;12.70;;;;;;;11.42;100.00;100504.94;5200946;28;20038;-78
2023/08/30 04:25:56;;;;;;;14.20;11.90;;;;;;;11.45;100.00;100507.50;5200530;28;20030;-77
2023/08/30 04:28:28;;;;;;;13.30;11.83;;;;;;;11.52;100.00;100501.25;5200554;28;20041;-78
2023/08/30 04:30:59;;;;;;;14.77;11.67;;;;;;;11.56;100.00;100497.69;5200918;28;20084;-78
2023/08/30 04:33:30;;;;;;;14.90;11.23;;;;;;;11.63;100.00;100493.19;5200867;28;20096;-78
2023/08/30 04:36:03;;;;;;;13.10;11.67;;;;;;;11.67;100.00;100492.22;5200400;28;20039;-78
2023/08/30 04:38:35;;;;;;;12.98;11.63;;;;;;;11.73;100.00;100483.41;5200499;28;20026;-77
2023/08/30 04:41:06;;;;;;;16.30;12.07;;;;;;;11.77;100.00;100491.13;5200678;28;20041;-78
2023/08/30 04:43:38;;;;;;;14.57;11.47;;;;;;;11.80;100.00;100490.19;5200318;28;20027;-77
2023/08/30 04:46:09;;;;;;;31.40;12.73;;;;;;;11.85;100.00;100490.97;5200499;28;20041;-78
2023/08/30 04:48:40;;;;;;;17.90;12.13;;;;;;;11.89;100.00;100486.53;5200397;28;20026;-78
2023/08/30 04:51:12;;;;;;;14.33;11.80;;;;;;;11.95;100.00;100484.66;5200609;28;20167;-78
2023/08/30 04:53:43;;;;;;;15.10;11.10;;;;;;;11.98;100.00;100478.50;5200149;28;20107;-77
2023/08/30 04:56:15;;;;;;;13.13;10.97;;;;;;;11.98;100.00;100474.13;5200059;28;20030;-78
2023/08/30 04:58:46;;;;;;;14.85;11.05;;;;;;;12.06;100.00;100475.69;5200193;28;20033;-78
2023/08/30 05:01:17;;;;;;;13.23;11.00;;;;;;;12.11;100.00;100471.25;5200533;28;20496;-79
2023/08/30 05:03:49;;;;;;;14.47;10.60;;;;;;;12.14;100.00;100471.13;5200473;28;20037;-77
2023/08/30 05:06:20;;;;;;;17.93;12.10;;;;;;;12.19;100.00;100466.69;5182857;28;20561;-77
2023/08/30 05:08:51;;;;;;;20.90;12.47;;;;;;;12.26;100.00;100470.00;5199983;28;20054;-77
2023/08/30 05:11:23;;;;;;;14.53;11.37;;;;;;;12.31;100.00;100462.91;5200301;28;20027;-78
2023/08/30 05:13:55;;;;;;;12.13;10.80;;;;;;;12.35;100.00;100454.09;5200221;28;20038;-78
2023/08/30 05:16:26;;;;;;;17.30;12.55;;;;;;;12.40;100.00;100453.06;5200525;28;20035;-78
2023/08/30 05:18:58;;;;;;;13.93;10.80;;;;;;;12.46;100.00;100451.19;5200200;28;20113;-78
2023/08/30 05:21:29;;;;;;;11.83;10.57;;;;;;;12.51;100.00;100449.31;5200285;28;20045;-76
2023/08/30 05:24:00;;;;;;;13.87;10.90;;;;;;;12.58;100.00;100453.50;5182658;28;20071;-77
2023/08/30 05:26:32;;;;;;;11.53;10.27;;;;;;;12.64;100.00;100450.72;5200223;28;20182;-77
2023/08/30 05:29:03;;;;;;;13.97;10.10;;;;;;;12.71;100.00;100454.88;5215211;28;20041;-77
2023/08/30 05:31:35;;;;;;;13.30;10.80;;;;;;;12.77;100.00;100446.84;5209347;28;20026;-79
2023/08/30 05:34:06;;;;;;;11.97;10.57;;;;;;;12.82;100.00;100458.97;5182751;28;20069;-77
2023/08/30 05:36:37;;;;;;;13.63;9.27;;;;;;;12.85;100.00;100457.13;5199309;28;20474;-77
2023/08/30 05:39:09;;;;;;;11.70;10.20;;;;;;;12.89;100.00;100450.03;5202905;28;20421;-77
2023/08/30 05:41:40;;;;;;;12.90;9.93;;;;;;;12.92;100.00;100444.72;5203654;28;20065;-77
2023/08/30 05:44:12;;;;;;;14.47;10.67;;;;;;;12.95;100.00;100448.09;5203766;28;20521;-77
2023/08/30 05:46:43;;;;;;;11.10;10.00;;;;;;;12.98;100.00;100444.56;5203608;28;20038;-78
2023/08/30 05:49:15;;;;;;;11.30;9.27;;;;;;;13.02;100.00;100442.69;5203505;28;20061;-78
2023/08/30 05:51:47;;;;;;;11.20;9.88;;;;;;;13.07;100.00;100438.19;5203342;28;20109;-78
2023/08/30 05:54:18;;;;;;;15.30;10.60;;;;;;;13.13;100.00;100427.56;5203488;28;20041;-79
2023/08/30 05:56:50;;;;;;;11.30;10.10;;;;;;;13.20;100.00;100433.47;5203026;28;20035;-78
2023/08/30 05:59:21;;;;;;;17.93;10.73;;;;;;;13.24;100.00;100430.72;5203268;28;20026;-77
2023/08/30 06:01:52;;;;;;;13.43;9.97;;;;;;;13.31;100.00;100426.16;5203104;28;20066;-78
2023/08/30 06:04:24;;;;;;;11.60;10.40;;;;;;;13.35;100.00;100425.19;5203069;28;20030;-78
2023/08/30 06:06:55;;;;;;;13.07;9.87;;;;;;;13.41;100.00;100427.63;5185303;28;20386;-77
2023/08/30 06:09:26;;;;;;;13.70;9.47;;;;;;;13.44;100.00;100426.66;5203203;28;20116;-76
2023/08/30 06:11:58;;;;;;;15.07;9.87;;;;;;;13.44;100.00;100422.31;5203111;28;20037;-78
2023/08/30 06:14:29;;;;;;;10.97;8.90;;;;;;;13.44;100.00;100429.28;5203040;28;20034;-78
2023/08/30 06:17:01;;;;;;;12.70;8.87;;;;;;;13.42;100.00;100423.25;5203000;28;20037;-77
2023/08/30 06:19:32;;;;;;;14.53;10.00;;;;;;;13.42;100.00;100418.00;5202930;28;20040;-76
2023/08/30 06:22:03;;;;;;;10.50;8.77;;;;;;;13.43;100.00;100431.06;5202987;28;20035;-76
2023/08/30 06:24:35;;;;;;;13.40;9.60;;;;;;;13.44;100.00;100417.06;5203043;28;20056;-76
2023/08/30 06:27:06;;;;;;;12.93;9.93;;;;;;;13.44;100.00;100417.06;5202831;28;20069;-78
2023/08/30 06:29:38;;;;;;;13.33;9.10;;;;;;;13.45;100.00;100418.75;5202912;28;20065;-78
2023/08/30 06:32:09;;;;;;;13.63;10.67;;;;;;;13.46;100.00;100411.78;5202739;28;20118;-77
2023/08/30 06:34:40;;;;;;;13.07;9.87;;;;;;;13.46;100.00;100412.63;5202662;28;20069;-78
2023/08/30 06:37:12;;;;;;;13.70;9.90;;;;;;;13.50;100.00;100413.41;5202308;28;20052;-78
2023/08/30 06:39:43;;;;;;;10.87;8.93;;;;;;;13.55;100.00;100426.34;5203104;28;20054;-78
2023/08/30 06:42:14;;;;;;;14.60;10.90;;;;;;;13.56;100.00;100431.53;5202686;28;20054;-80
2023/08/30 06:44:46;;;;;;;15.83;9.53;;;;;;;13.57;100.00;100433.25;5202737;28;20054;-78
2023/08/30 06:47:17;;;;;;;12.40;9.20;;;;;;;13.58;100.00;100434.97;5202588;28;20119;-78
2023/08/30 06:49:48;;;;;;;12.70;10.53;;;;;;;13.55;100.00;100423.72;5201943;28;20058;-78
2023/08/30 06:52:20;;;;;;;11.17;9.50;;;;;;;13.45;100.00;100428.38;5202710;28;20039;-77
2023/08/30 06:54:51;;;;;;;13.67;11.10;;;;;;;13.37;100.00;100430.38;5202237;28;20049;-78
2023/08/30 06:57:23;;;;;;;11.87;9.97;;;;;;;13.32;100.00;100443.56;5202531;28;20461;-78
2023/08/30 06:59:54;;;;;;;12.93;10.97;;;;;;;13.16;100.00;100445.78;5202249;28;20478;-78
2023/08/30 07:02:28;;;;;;;13.53;10.50;;;;;;;13.01;100.00;100444.47;5202359;28;20030;-80
2023/08/30 07:04:59;;;;;;;13.95;12.50;;;;;;;12.87;100.00;100439.63;5201823;28;20027;-80
2023/08/30 07:07:31;;;;;;;15.10;12.87;;;;;;;12.70;100.00;100428.75;5202172;28;20049;-81
2023/08/30 07:10:03;;;;;;;16.42;13.43;;;;;;;12.64;100.00;100419.34;5202544;28;20054;-81
2023/08/30 07:12:34;;;;;;;16.10;13.87;;;;;;;12.56;100.00;100413.47;5202488;28;20035;-82
2023/08/30 07:15:06;;;;;;;14.43;13.03;;;;;;;12.56;100.00;100403.00;5202374;28;20062;-83
2023/08/30 07:17:40;;;;;;;23.80;13.02;;;;;;;12.51;100.00;100389.16;5202428;28;20042;-83
2023/08/30 07:20:12;;;;;;;15.57;12.95;;;;;;;12.50;100.00;100390.09;5185370;28;20026;-83
2023/08/30 07:22:43;;;;;;;18.17;12.70;;;;;;;12.44;100.00;100385.88;5202089;28;20088;-85
2023/08/30 07:25:15;;;;;;;18.03;13.23;;;;;;;12.46;100.00;100384.09;5202049;28;20423;-84
2023/08/30 07:27:46;;;;;;;15.90;12.80;;;;;;;12.43;100.00;100378.94;5201738;28;20509;-86
2023/08/30 07:30:17;;;;;;;18.73;14.50;;;;;;;12.46;100.00;100372.75;5201830;28;20137;-83
2023/08/30 07:32:49;;;;;;;20.10;12.90;;;;;;;12.40;100.00;100384.25;5201955;28;20481;-83
2023/08/30 07:35:20;;;;;;;16.63;13.03;;;;;;;12.39;100.00;100379.91;5201804;28;20031;-83
2023/08/30 07:37:52;;;;;;;15.00;13.43;;;;;;;12.42;100.00;100374.59;5201937;28;20085;-83
2023/08/30 07:40:28;;;;;;;14.37;11.80;;;;;;;12.42;100.00;100373.75;5201842;28;20098;-83
2023/08/30 07:42:59;;;;;;;18.38;13.75;;;;;;;12.49;100.00;100370.91;5202240;28;20037;-84
2023/08/30 07:45:31;;;;;;;14.23;12.33;;;;;;;12.43;100.00;100367.59;5202071;28;20034;-84
2023/08/30 07:48:02;;;;;;;16.60;11.97;;;;;;;12.45;100.00;100371.91;5202290;28;20034;-84
2023/08/30 07:50:34;;;;;;;15.00;11.87;;;;;;;12.42;100.00;100372.00;5202365;28;20034;-84
2023/08/30 07:53:05;;;;;;;14.97;12.37;;;;;;;12.48;100.00;100365.75;5184575;28;20426;-84
2023/08/30 07:55:36;;;;;;;18.97;12.23;;;;;;;12.48;100.00;100371.81;5203158;28;20038;-85
2023/08/30 07:58:10;;;;;;;16.27;13.07;;;;;;;12.52;100.00;100368.22;5207300;28;20066;-84
2023/08/30 08:00:41;;;;;;;14.38;11.88;;;;;;;12.52;100.00;100368.22;5218124;28;20064;-86
2023/08/30 08:03:12;;;;;;;20.00;12.47;;;;;;;12.56;100.00;100366.41;5218633;28;20058;-84
2023/08/30 08:05:44;;;;;;;13.93;12.30;;;;;;;12.62;100.00;100365.34;5196408;28;20034;-84
2023/08/30 08:08:16;;;;;;;14.50;11.23;;;;;;;12.62;100.00;100366.19;5205907;28;20058;-83
2023/08/30 08:10:48;;;;;;;14.82;10.60;;;;;;;12.57;100.00;100365.47;5208299;28;20030;-84
2023/08/30 08:13:19;;;;;;;14.43;10.40;;;;;;;12.61;100.00;100371.50;5206182;28;20061;-85
2023/08/30 08:15:50;;;;;;;12.67;10.80;;;;;;;12.61;100.00;100374.97;5206926;28;20098;-86
2023/08/30 08:18:22;;;;;;;14.33;10.93;;;;;;;12.57;100.00;100368.09;5215768;28;20116;-91
2023/08/30 08:20:53;;;;;;;12.50;10.63;;;;;;;12.60;100.00;100368.00;5206941;28;20041;-90
2023/08/30 08:23:25;;;;;;;12.47;9.97;;;;;;;12.55;100.00;100373.34;5205812;28;20084;-83
2023/08/30 08:26:00;;;;;;;11.80;9.47;;;;;;;12.55;100.00;100368.13;5189237;28;20585;-88
2023/08/30 08:28:31;;;;;;;14.10;10.32;;;;;;;12.58;100.00;100373.28;5208672;28;20028;-89
2023/08/30 08:31:03;;;;;;;11.83;10.53;;;;;;;12.69;100.00;100375.59;5205114;28;20451;-89
2023/08/30 08:33:34;;;;;;;13.63;10.30;;;;;;;12.69;100.00;100370.38;5204495;28;20363;-89
2023/08/30 08:36:06;;;;;;;15.00;10.03;;;;;;;12.68;100.00;100363.41;5206397;28;20026;-88
2023/08/30 08:38:38;;;;;;;11.43;9.60;;;;;;;12.73;100.00;100364.13;5188165;28;20491;-86
2023/08/30 08:41:14;;;;;;;12.38;9.43;;;;;;;12.69;100.00;100362.53;5185341;28;20057;-87
2023/08/30 08:43:46;;;;;;;11.23;8.88;;;;;;;12.71;100.00;100360.72;5203173;28;20029;-82
2023/08/30 08:46:20;;;;;;;11.77;9.60;;;;;;;12.75;100.00;100377.16;5185038;28;20475;-87
2023/08/30 08:48:54;;;;;;;11.60;8.20;;;;;;;12.77;100.00;100370.16;5169830;28;20034;-85
2023/08/30 08:51:26;;;;;;;9.43;7.57;;;;;;;12.75;100.00;100367.59;5202990;28;20035;-85
2023/08/30 08:54:03;;;;;;;13.02;9.85;;;;;;;12.80;100.00;100364.84;5185468;28;20046;-86
2023/08/30 08:56:35;;;;;;;8.75;7.85;;;;;;;12.81;100.00;100371.78;5183872;28;20038;-84
2023/08/30 08:59:08;;;;;;;10.55;7.97;;;;;;;12.79;100.00;100363.13;5202135;28;20502;-84
2023/08/30 09:01:39;;;;;;;9.43;8.10;;;;;;;12.84;100.00;100373.47;5201897;28;20529;-84
2023/08/30 09:04:11;;;;;;;11.75;8.80;;;;;;;12.99;100.00;100374.75;5200828;28;20041;-83
2023/08/30 09:06:45;;;;;;;11.03;8.50;;;;;;;13.07;100.00;100371.03;5183006;28;20092;-83
2023/08/30 09:09:17;;;;;;;9.45;7.93;;;;;;;13.16;100.00;100369.03;5201679;28;20050;-82
2023/08/30 09:11:48;;;;;;;10.80;7.80;;;;;;;13.23;100.00;100355.69;5204842;28;20053;-82
2023/08/30 09:14:20;;;;;;;10.00;8.00;;;;;;;13.41;100.00;100354.31;5180482;28;20030;-82
2023/08/30 09:17:00;;;;;;;9.03;8.13;;;;;;;13.53;100.00;100362.69;5195561;28;20035;-80
2023/08/30 09:19:32;;;;;;;9.27;7.80;;;;;;;13.91;100.00;100352.72;5210956;28;20479;-81
2023/08/30 09:22:03;;;;;;;9.80;7.73;;;;;;;13.97;100.00;100355.13;5213275;28;20042;-82
2023/08/30 09:24:41;;;;;;;8.30;7.03;;;;;;;13.89;100.00;100358.00;5200121;28;20431;-84
2023/08/30 09:27:13;;;;;;;8.90;7.10;;;;;;;13.99;100.00;100366.41;5210456;28;20113;-83
2023/08/30 09:29:45;;;;;;;8.40;6.72;;;;;;;13.90;100.00;100361.50;5209539;28;20053;-84
2023/08/30 09:32:20;;;;;;;8.17;7.37;;;;;;;13.85;100.00;100361.66;5208182;28;20030;-82
2023/08/30 09:34:52;;;;;;;7.47;6.63;;;;;;;14.00;100.00;100361.13;5207894;28;20030;-81
2023/08/30 09:37:24;;;;;;;9.83;7.10;;;;;;;14.26;100.00;100367.22;5206094;28;20061;-82
2023/08/30 09:39:55;;;;;;;7.87;7.07;;;;;;;14.21;100.00;100366.53;5206666;28;20022;-81
2023/08/30 09:42:28;;;;;;;7.30;6.40;;;;;;;14.38;100.00;100371.22;5188551;28;20042;-81
2023/08/30 09:44:59;;;;;;;7.20;6.50;;;;;;;14.37;100.00;100366.88;5188036;28;20529;-80
2023/08/30 09:47:30;;;;;;;7.30;6.57;;;;;;;14.35;100.00;100369.53;5186227;28;20030;-80
2023/08/30 09:50:03;;;;;;;7.70;6.87;;;;;;;14.51;100.00;100364.63;5203929;28;20081;-82
2023/08/30 09:52:36;;;;;;;8.23;7.35;;;;;;;15.08;100.00;100366.94;5203745;28;20430;-81
2023/08/30 09:55:09;;;;;;;7.85;7.05;;;;;;;15.88;100.00;100365.56;5203680;28;20030;-82
2023/08/30 09:57:43;;;;;;;5.65;5.10;;;;;;;16.13;100.00;100375.91;5203952;28;20568;-80
2023/08/30 10:00:15;;;;;;;6.35;5.28;;;;;;;16.47;100.00;100372.69;5203465;28;20418;-80
2023/08/30 10:02:47;;;;;;;5.75;5.15;;;;;;;16.80;100.00;100377.34;5203694;28;20041;-80
2023/08/30 10:05:19;;;;;;;7.73;5.83;;;;;;;17.41;100.00;100368.41;5203107;28;20033;-82
2023/08/30 10:07:53;;;;;;;7.97;5.45;;;;;;;18.12;99.12;100383.41;5186045;28;20371;-81
2023/08/30 10:10:25;;;;;;;5.97;4.80;;;;;;;18.16;97.43;100363.88;5203246;28;20069;-81
2023/08/30 10:12:57;;;;;;;5.47;4.78;;;;;;;18.15;94.16;100367.44;5203544;28;20034;-79
2023/08/30 10:15:33;;;;;;;5.55;5.03;;;;;;;19.32;93.67;100357.75;5185750;28;20049;-80
2023/08/30 10:18:09;;;;;;;6.53;5.00;;;;;;;19.97;85.98;100362.84;5203594;28;20109;-79
2023/08/30 10:20:41;;;;;;;5.45;4.15;;;;;;;20.09;82.70;100357.75;5203220;28;20033;-80
2023/08/30 10:23:14;;;;;;;4.80;4.30;;;;;;;20.16;81.27;100359.97;5203247;28;20101;-80
2023/08/30 10:25:47;;;;;;;7.70;4.75;;;;;;;20.06;81.26;100357.94;5203231;28;20040;-78
2023/08/30 10:28:21;;;;;;;7.03;5.32;;;;;;;20.72;77.73;100369.84;5185480;28;20026;-81
2023/08/30 10:30:53;;;;;;;5.50;4.20;;;;;;;20.53;76.83;100348.94;5203017;28;20414;-78
2023/08/30 10:33:25;;;;;;;5.28;4.57;;;;;;;20.54;77.65;100354.16;5181982;28;20037;-80
2023/08/30 10:36:06;;;;;;;5.32;4.55;;;;;;;20.87;81.93;100353.03;5181281;28;20034;-80
2023/08/30 10:38:40;;;;;;;5.70;4.38;;;;;;;21.55;74.21;100346.06;5182831;28;20053;-79
2023/08/30 10:41:11;;;;;;;4.50;4.07;;;;;;;22.13;73.29;100351.06;5182910;28;20042;-79
2023/08/30 10:43:51;;;;;;;5.20;4.43;;;;;;;22.18;69.15;100364.88;5183028;28;20045;-78
2023/08/30 10:46:32;;;;;;;6.25;4.35;;;;;;;21.64;70.43;100358.72;5182894;28;20400;-78
2023/08/30 10:49:14;;;;;;;5.05;4.15;;;;;;;20.99;73.35;100348.75;5182697;28;20553;-77
2023/08/30 10:51:55;;;;;;;5.03;4.43;;;;;;;21.34;77.25;100339.50;5182690;28;20033;-79
2023/08/30 10:54:36;;;;;;;5.55;4.22;;;;;;;20.47;76.85;100338.72;5181149;28;20035;-78
2023/08/30 10:57:17;;;;;;;5.13;4.22;;;;;;;20.10;77.97;100343.59;5182229;28;20198;-77
2023/08/30 11:00:09;;;;;;;5.25;4.03;;;;;;;21.01;80.57;100330.09;5182462;28;20042;-79
2023/08/30 11:02:49;;;;;;;6.90;4.22;;;;;;;20.79;75.29;100341.22;5182701;28;20379;-77
2023/08/30 11:05:25;;;;;;;9.15;4.30;;;;;;;20.07;77.18;100338.50;5182575;28;20485;-76
2023/08/30 11:07:56;;;;;;;6.95;4.32;;;;;;;19.42;78.59;100334.28;5182237;28;20027;-77
2023/08/30 11:10:27;;;;;;;5.97;4.83;;;;;;;18.79;82.06;100325.41;5182787;28;20070;-77
2023/08/30 11:13:01;;;;;;;6.53;3.90;;;;;;;20.23;76.89;100333.97;5182279;28;20049;-78
2023/08/30 11:15:33;;;;;;;5.97;3.42;;;;;;;21.37;65.93;100336.63;5182199;28;20146;-78
2023/08/30 11:18:05;;;;;;;4.00;2.97;;;;;;;21.62;63.27;100339.41;5182511;28;20034;-77
2023/08/30 11:20:36;;;;;;;5.90;3.08;;;;;;;22.72;58.82;100343.44;5182583;28;20033;-78
2023/08/30 11:23:08;;;;;;;9.60;3.40;;;;;;;22.98;54.09;100342.53;5182185;28;20418;-78
2023/08/30 11:25:39;;;;;;;4.43;2.90;;;;;;;23.87;55.94;100329.84;5182201;28;20031;-79
2023/08/30 11:28:11;;;;;;;3.73;2.83;;;;;;;23.32;54.11;100340.13;5180743;28;20031;-77
2023/08/30 11:30:42;;;;;;;5.37;2.77;;;;;;;22.72;57.12;100343.44;5181720;28;20607;-80
2023/08/30 11:33:18;;;;;;;6.33;2.93;;;;;;;21.57;62.02;100353.91;5182607;28;20285;-78